sensor_id;sensor_type;location;lat;lon;timestamp;temperature;humidity
23385;DHT22;11865;45.394;10.978;2022-07-04T00:01:52;28.00;95.40
23385;DHT22;11865;45.394;10.978;2022-07-04T00:04:19;27.80;95.90
23385;DHT22;11865;45.394;10.978;2022-07-04T00:06:47;27.80;95.70
23385;DHT22;11865;45.394;10.978;2022-07-04T00:09:14;27.90;95.50
23385;DHT22;11865;45.394;10.978;2022-07-04T00:11:41;27.80;95.20
23385;DHT22;11865;45.394;10.978;2022-07-04T00:14:09;27.80;95.20
23385;DHT22;11865;45.394;10.978;2022-07-04T00:16:36;27.90;95.70
23385;DHT22;11865;45.394;10.978;2022-07-04T00:19:04;27.60;96.60
23385;DHT22;11865;45.394;10.978;2022-07-04T00:21:31;27.30;97.30
23385;DHT22;11865;45.394;10.978;2022-07-04T00:23:58;27.20;97.70
23385;DHT22;11865;45.394;10.978;2022-07-04T00:26:26;26.90;98.20
23385;DHT22;11865;45.394;10.978;2022-07-04T00:28:53;26.90;98.90
23385;DHT22;11865;45.394;10.978;2022-07-04T00:31:21;26.80;98.60
23385;DHT22;11865;45.394;10.978;2022-07-04T00:33:48;27.10;96.90
23385;DHT22;11865;45.394;10.978;2022-07-04T00:36:16;27.10;96.60
23385;DHT22;11865;45.394;10.978;2022-07-04T00:38:43;27.50;96.10
23385;DHT22;11865;45.394;10.978;2022-07-04T00:41:10;27.50;95.60
23385;DHT22;11865;45.394;10.978;2022-07-04T00:43:37;27.70;95.30
23385;DHT22;11865;45.394;10.978;2022-07-04T00:46:25;27.80;95.20
23385;DHT22;11865;45.394;10.978;2022-07-04T00:48:52;27.90;95.00
23385;DHT22;11865;45.394;10.978;2022-07-04T00:51:19;27.80;95.10
23385;DHT22;11865;45.394;10.978;2022-07-04T00:53:47;27.70;97.10
23385;DHT22;11865;45.394;10.978;2022-07-04T00:56:15;27.30;97.70
23385;DHT22;11865;45.394;10.978;2022-07-04T00:58:42;27.20;97.80
23385;DHT22;11865;45.394;10.978;2022-07-04T01:01:09;26.90;98.30
23385;DHT22;11865;45.394;10.978;2022-07-04T01:03:37;26.70;98.20
23385;DHT22;11865;45.394;10.978;2022-07-04T01:06:04;26.80;97.20
23385;DHT22;11865;45.394;10.978;2022-07-04T01:08:39;27.10;96.10
23385;DHT22;11865;45.394;10.978;2022-07-04T01:11:07;27.50;96.10
23385;DHT22;11865;45.394;10.978;2022-07-04T01:13:34;27.30;96.20
23385;DHT22;11865;45.394;10.978;2022-07-04T01:16:02;27.30;96.10
23385;DHT22;11865;45.394;10.978;2022-07-04T01:18:30;27.20;96.30
23385;DHT22;11865;45.394;10.978;2022-07-04T01:20:58;27.10;96.60
23385;DHT22;11865;45.394;10.978;2022-07-04T01:23:25;27.20;96.10
23385;DHT22;11865;45.394;10.978;2022-07-04T01:25:53;27.10;96.00
23385;DHT22;11865;45.394;10.978;2022-07-04T01:28:20;27.20;95.70
23385;DHT22;11865;45.394;10.978;2022-07-04T01:30:48;27.20;95.60
23385;DHT22;11865;45.394;10.978;2022-07-04T01:33:16;27.30;95.60
23385;DHT22;11865;45.394;10.978;2022-07-04T01:35:44;27.30;95.60
23385;DHT22;11865;45.394;10.978;2022-07-04T01:38:12;27.30;95.10
23385;DHT22;11865;45.394;10.978;2022-07-04T01:40:39;27.50;95.10
23385;DHT22;11865;45.394;10.978;2022-07-04T01:43:06;27.40;96.10
23385;DHT22;11865;45.394;10.978;2022-07-04T01:45:34;27.20;97.00
23385;DHT22;11865;45.394;10.978;2022-07-04T01:50:31;26.90;97.40
23385;DHT22;11865;45.394;10.978;2022-07-04T01:52:59;26.80;97.80
23385;DHT22;11865;45.394;10.978;2022-07-04T01:55:27;26.50;98.90
23385;DHT22;11865;45.394;10.978;2022-07-04T01:57:55;26.50;99.10
23385;DHT22;11865;45.394;10.978;2022-07-04T02:00:22;26.30;99.00
23385;DHT22;11865;45.394;10.978;2022-07-04T02:03:09;26.20;99.30
23385;DHT22;11865;45.394;10.978;2022-07-04T02:05:36;26.10;99.90
23385;DHT22;11865;45.394;10.978;2022-07-04T02:08:04;25.90;99.80
23385;DHT22;11865;45.394;10.978;2022-07-04T02:10:32;26.00;99.00
23385;DHT22;11865;45.394;10.978;2022-07-04T02:13:00;26.00;99.20
23385;DHT22;11865;45.394;10.978;2022-07-04T02:17:55;26.50;97.10
23385;DHT22;11865;45.394;10.978;2022-07-04T02:20:23;26.80;96.30
23385;DHT22;11865;45.394;10.978;2022-07-04T02:22:50;27.00;95.90
23385;DHT22;11865;45.394;10.978;2022-07-04T02:25:18;27.10;95.90
23385;DHT22;11865;45.394;10.978;2022-07-04T02:27:45;27.20;95.80
23385;DHT22;11865;45.394;10.978;2022-07-04T02:30:13;27.00;96.00
23385;DHT22;11865;45.394;10.978;2022-07-04T02:32:42;26.90;97.60
23385;DHT22;11865;45.394;10.978;2022-07-04T02:35:10;26.60;97.80
23385;DHT22;11865;45.394;10.978;2022-07-04T02:37:37;26.50;96.60
23385;DHT22;11865;45.394;10.978;2022-07-04T02:40:04;26.80;96.10
23385;DHT22;11865;45.394;10.978;2022-07-04T02:42:32;26.90;95.70
23385;DHT22;11865;45.394;10.978;2022-07-04T02:45:00;26.90;95.40
23385;DHT22;11865;45.394;10.978;2022-07-04T02:47:27;27.00;95.30
23385;DHT22;11865;45.394;10.978;2022-07-04T02:49:55;27.00;95.20
23385;DHT22;11865;45.394;10.978;2022-07-04T02:52:22;26.70;98.10
23385;DHT22;11865;45.394;10.978;2022-07-04T02:54:49;26.40;98.30
23385;DHT22;11865;45.394;10.978;2022-07-04T02:57:19;26.20;98.80
23385;DHT22;11865;45.394;10.978;2022-07-04T02:59:47;26.00;99.00
23385;DHT22;11865;45.394;10.978;2022-07-04T03:02:14;25.80;98.40
23385;DHT22;11865;45.394;10.978;2022-07-04T03:04:41;26.20;97.40
23385;DHT22;11865;45.394;10.978;2022-07-04T03:07:09;26.00;98.80
23385;DHT22;11865;45.394;10.978;2022-07-04T03:09:36;25.70;99.50
23385;DHT22;11865;45.394;10.978;2022-07-04T03:12:04;25.80;99.00
23385;DHT22;11865;45.394;10.978;2022-07-04T03:14:31;26.00;97.80
23385;DHT22;11865;45.394;10.978;2022-07-04T03:16:58;26.00;98.80
23385;DHT22;11865;45.394;10.978;2022-07-04T03:19:26;25.70;99.70
23385;DHT22;11865;45.394;10.978;2022-07-04T03:21:53;25.60;99.90
23385;DHT22;11865;45.394;10.978;2022-07-04T03:24:20;25.40;99.90
23385;DHT22;11865;45.394;10.978;2022-07-04T03:26:48;25.40;99.90
23385;DHT22;11865;45.394;10.978;2022-07-04T03:29:15;25.20;99.90
23385;DHT22;11865;45.394;10.978;2022-07-04T03:31:42;25.20;99.90
23385;DHT22;11865;45.394;10.978;2022-07-04T03:34:09;25.10;99.90
23385;DHT22;11865;45.394;10.978;2022-07-04T03:36:37;25.00;99.90
23385;DHT22;11865;45.394;10.978;2022-07-04T03:39:04;25.30;99.90
23385;DHT22;11865;45.394;10.978;2022-07-04T03:41:31;25.60;99.90
23385;DHT22;11865;45.394;10.978;2022-07-04T03:43:58;26.10;99.90
23385;DHT22;11865;45.394;10.978;2022-07-04T03:46:26;26.20;99.90
23385;DHT22;11865;45.394;10.978;2022-07-04T03:48:53;26.20;99.90
23385;DHT22;11865;45.394;10.978;2022-07-04T03:51:21;26.00;99.90
23385;DHT22;11865;45.394;10.978;2022-07-04T03:53:49;26.20;99.90
23385;DHT22;11865;45.394;10.978;2022-07-04T03:56:17;26.20;99.90
23385;DHT22;11865;45.394;10.978;2022-07-04T03:58:44;26.40;99.90
23385;DHT22;11865;45.394;10.978;2022-07-04T04:01:16;26.40;99.90
23385;DHT22;11865;45.394;10.978;2022-07-04T04:03:44;26.00;99.90
23385;DHT22;11865;45.394;10.978;2022-07-04T04:06:30;26.00;99.90
23385;DHT22;11865;45.394;10.978;2022-07-04T04:08:58;25.60;99.90
23385;DHT22;11865;45.394;10.978;2022-07-04T04:11:25;25.60;99.90
23385;DHT22;11865;45.394;10.978;2022-07-04T04:13:52;25.60;99.90
23385;DHT22;11865;45.394;10.978;2022-07-04T04:16:19;25.40;99.90
23385;DHT22;11865;45.394;10.978;2022-07-04T04:18:47;25.30;99.90
23385;DHT22;11865;45.394;10.978;2022-07-04T04:21:14;25.40;99.90
23385;DHT22;11865;45.394;10.978;2022-07-04T04:23:41;25.50;99.90
23385;DHT22;11865;45.394;10.978;2022-07-04T04:26:08;25.60;99.90
23385;DHT22;11865;45.394;10.978;2022-07-04T04:28:36;25.70;99.90
23385;DHT22;11865;45.394;10.978;2022-07-04T04:31:03;25.80;99.90
23385;DHT22;11865;45.394;10.978;2022-07-04T04:33:30;25.80;99.90
23385;DHT22;11865;45.394;10.978;2022-07-04T04:35:58;26.00;99.90
23385;DHT22;11865;45.394;10.978;2022-07-04T04:38:25;26.20;99.90
23385;DHT22;11865;45.394;10.978;2022-07-04T04:40:52;26.60;99.90
23385;DHT22;11865;45.394;10.978;2022-07-04T04:43:19;26.80;99.90
23385;DHT22;11865;45.394;10.978;2022-07-04T04:45:47;26.80;99.90
23385;DHT22;11865;45.394;10.978;2022-07-04T04:48:14;27.00;99.90
23385;DHT22;11865;45.394;10.978;2022-07-04T04:50:41;27.20;99.90
23385;DHT22;11865;45.394;10.978;2022-07-04T04:53:09;27.30;99.90
23385;DHT22;11865;45.394;10.978;2022-07-04T04:55:36;28.00;99.90
23385;DHT22;11865;45.394;10.978;2022-07-04T04:58:03;28.60;99.90
23385;DHT22;11865;45.394;10.978;2022-07-04T05:00:31;29.20;99.90
23385;DHT22;11865;45.394;10.978;2022-07-04T05:02:58;30.00;99.90
23385;DHT22;11865;45.394;10.978;2022-07-04T05:05:25;30.40;99.90
23385;DHT22;11865;45.394;10.978;2022-07-04T05:07:52;30.90;99.90
23385;DHT22;11865;45.394;10.978;2022-07-04T05:10:20;31.50;99.90
23385;DHT22;11865;45.394;10.978;2022-07-04T05:12:47;31.40;99.90
23385;DHT22;11865;45.394;10.978;2022-07-04T05:15:14;32.10;99.90
23385;DHT22;11865;45.394;10.978;2022-07-04T05:17:42;32.10;99.90
23385;DHT22;11865;45.394;10.978;2022-07-04T17:34:40;28.60;71.80
23385;DHT22;11865;45.394;10.978;2022-07-04T17:37:07;27.80;81.20
23385;DHT22;11865;45.394;10.978;2022-07-04T17:39:40;26.90;94.80
23385;DHT22;11865;45.394;10.978;2022-07-04T17:42:09;26.50;92.60
23385;DHT22;11865;45.394;10.978;2022-07-04T17:44:37;26.10;92.30
23385;DHT22;11865;45.394;10.978;2022-07-04T17:47:05;25.90;93.30
23385;DHT22;11865;45.394;10.978;2022-07-04T17:49:33;25.20;92.60
23385;DHT22;11865;45.394;10.978;2022-07-04T17:52:00;24.80;93.70
23385;DHT22;11865;45.394;10.978;2022-07-04T17:54:27;24.60;93.10
23385;DHT22;11865;45.394;10.978;2022-07-04T17:57:15;24.60;94.90
23385;DHT22;11865;45.394;10.978;2022-07-04T17:59:42;24.60;95.40
23385;DHT22;11865;45.394;10.978;2022-07-04T18:02:10;24.50;96.80
23385;DHT22;11865;45.394;10.978;2022-07-04T18:04:38;24.20;96.70
23385;DHT22;11865;45.394;10.978;2022-07-04T18:07:06;24.40;96.10
23385;DHT22;11865;45.394;10.978;2022-07-04T18:09:43;24.40;95.40
23385;DHT22;11865;45.394;10.978;2022-07-04T18:12:10;24.50;94.00
23385;DHT22;11865;45.394;10.978;2022-07-04T18:14:38;24.60;93.00
23385;DHT22;11865;45.394;10.978;2022-07-04T18:17:06;24.60;92.50
23385;DHT22;11865;45.394;10.978;2022-07-04T18:19:34;25.00;92.90
23385;DHT22;11865;45.394;10.978;2022-07-04T18:22:01;25.00;92.00
23385;DHT22;11865;45.394;10.978;2022-07-04T18:24:28;25.00;91.90
23385;DHT22;11865;45.394;10.978;2022-07-04T18:26:56;24.80;92.40
23385;DHT22;11865;45.394;10.978;2022-07-04T18:29:23;24.60;93.20
23385;DHT22;11865;45.394;10.978;2022-07-04T18:31:51;24.60;93.80
23385;DHT22;11865;45.394;10.978;2022-07-04T18:34:19;24.60;94.10
23385;DHT22;11865;45.394;10.978;2022-07-04T18:36:48;24.50;94.90
23385;DHT22;11865;45.394;10.978;2022-07-04T18:39:17;24.50;93.90
23385;DHT22;11865;45.394;10.978;2022-07-04T18:41:44;24.40;93.60
23385;DHT22;11865;45.394;10.978;2022-07-04T18:44:30;24.20;96.60
23385;DHT22;11865;45.394;10.978;2022-07-04T18:46:58;23.90;96.70
23385;DHT22;11865;45.394;10.978;2022-07-04T18:49:27;23.90;96.80
23385;DHT22;11865;45.394;10.978;2022-07-04T18:51:54;23.90;96.70
23385;DHT22;11865;45.394;10.978;2022-07-04T18:54:22;23.80;97.00
23385;DHT22;11865;45.394;10.978;2022-07-04T18:56:49;23.80;97.20
23385;DHT22;11865;45.394;10.978;2022-07-04T18:59:17;23.90;96.70
23385;DHT22;11865;45.394;10.978;2022-07-04T19:01:44;23.80;96.90
23385;DHT22;11865;45.394;10.978;2022-07-04T19:04:11;23.80;97.20
23385;DHT22;11865;45.394;10.978;2022-07-04T19:06:45;23.70;99.90
23385;DHT22;11865;45.394;10.978;2022-07-04T19:09:13;23.70;99.90
23385;DHT22;11865;45.394;10.978;2022-07-04T19:11:40;23.30;99.90
23385;DHT22;11865;45.394;10.978;2022-07-04T19:14:07;23.20;99.90
23385;DHT22;11865;45.394;10.978;2022-07-04T19:16:37;23.20;99.90
23385;DHT22;11865;45.394;10.978;2022-07-04T19:19:05;23.30;99.90
23385;DHT22;11865;45.394;10.978;2022-07-04T19:21:32;23.10;99.90
23385;DHT22;11865;45.394;10.978;2022-07-04T19:24:00;23.10;99.90
23385;DHT22;11865;45.394;10.978;2022-07-04T19:26:27;23.20;99.90
23385;DHT22;11865;45.394;10.978;2022-07-04T19:28:55;23.20;99.90
23385;DHT22;11865;45.394;10.978;2022-07-04T19:31:22;23.30;99.90
23385;DHT22;11865;45.394;10.978;2022-07-04T19:33:49;23.50;99.90
23385;DHT22;11865;45.394;10.978;2022-07-04T19:36:17;23.60;99.90
23385;DHT22;11865;45.394;10.978;2022-07-04T19:38:45;23.60;99.90
23385;DHT22;11865;45.394;10.978;2022-07-04T19:41:13;23.70;99.90
23385;DHT22;11865;45.394;10.978;2022-07-04T19:43:40;23.80;99.90
23385;DHT22;11865;45.394;10.978;2022-07-04T19:46:07;23.90;99.90
23385;DHT22;11865;45.394;10.978;2022-07-04T19:48:35;23.90;99.90
23385;DHT22;11865;45.394;10.978;2022-07-04T19:51:08;24.00;99.90
23385;DHT22;11865;45.394;10.978;2022-07-04T19:53:36;24.10;99.90
23385;DHT22;11865;45.394;10.978;2022-07-04T19:56:04;24.20;99.90
23385;DHT22;11865;45.394;10.978;2022-07-04T19:58:31;24.20;99.90
23385;DHT22;11865;45.394;10.978;2022-07-04T20:01:00;24.20;99.20
23385;DHT22;11865;45.394;10.978;2022-07-04T20:03:28;24.30;98.60
23385;DHT22;11865;45.394;10.978;2022-07-04T20:05:56;24.40;98.90
23385;DHT22;11865;45.394;10.978;2022-07-04T20:08:23;24.40;98.20
23385;DHT22;11865;45.394;10.978;2022-07-04T20:10:50;24.40;99.90
23385;DHT22;11865;45.394;10.978;2022-07-04T20:13:17;24.30;99.90
23385;DHT22;11865;45.394;10.978;2022-07-04T20:15:45;24.10;99.90
23385;DHT22;11865;45.394;10.978;2022-07-04T20:18:12;24.10;99.90
23385;DHT22;11865;45.394;10.978;2022-07-04T20:20:40;23.90;99.90
23385;DHT22;11865;45.394;10.978;2022-07-04T20:23:08;23.80;99.90
23385;DHT22;11865;45.394;10.978;2022-07-04T20:25:35;23.80;99.90
23385;DHT22;11865;45.394;10.978;2022-07-04T20:28:04;23.70;99.90
23385;DHT22;11865;45.394;10.978;2022-07-04T20:30:31;23.70;99.90
23385;DHT22;11865;45.394;10.978;2022-07-04T20:32:59;23.80;99.90
23385;DHT22;11865;45.394;10.978;2022-07-04T20:35:26;23.80;99.90
23385;DHT22;11865;45.394;10.978;2022-07-04T20:37:53;23.70;99.90
23385;DHT22;11865;45.394;10.978;2022-07-04T20:40:20;23.70;99.90
23385;DHT22;11865;45.394;10.978;2022-07-04T20:42:48;23.60;99.90
23385;DHT22;11865;45.394;10.978;2022-07-04T20:45:15;23.70;99.90
23385;DHT22;11865;45.394;10.978;2022-07-04T20:47:42;23.70;99.90
23385;DHT22;11865;45.394;10.978;2022-07-04T20:50:10;23.70;99.90
23385;DHT22;11865;45.394;10.978;2022-07-04T20:52:37;23.80;99.90
23385;DHT22;11865;45.394;10.978;2022-07-04T20:55:05;23.80;99.90
23385;DHT22;11865;45.394;10.978;2022-07-04T20:57:39;23.70;99.90
23385;DHT22;11865;45.394;10.978;2022-07-04T21:00:07;23.60;99.90
23385;DHT22;11865;45.394;10.978;2022-07-04T21:02:35;23.50;99.90
23385;DHT22;11865;45.394;10.978;2022-07-04T21:05:03;23.40;99.90
23385;DHT22;11865;45.394;10.978;2022-07-04T21:07:48;23.40;99.90
23385;DHT22;11865;45.394;10.978;2022-07-04T21:10:15;23.40;99.90
23385;DHT22;11865;45.394;10.978;2022-07-04T21:12:43;23.50;99.90
23385;DHT22;11865;45.394;10.978;2022-07-04T21:15:11;23.30;99.90
23385;DHT22;11865;45.394;10.978;2022-07-04T21:17:50;23.20;99.90
23385;DHT22;11865;45.394;10.978;2022-07-04T21:20:17;23.10;99.90
23385;DHT22;11865;45.394;10.978;2022-07-04T21:22:45;23.10;99.90
23385;DHT22;11865;45.394;10.978;2022-07-04T21:25:12;23.00;99.90
23385;DHT22;11865;45.394;10.978;2022-07-04T21:27:40;23.00;99.90
23385;DHT22;11865;45.394;10.978;2022-07-04T21:30:07;22.90;99.90
23385;DHT22;11865;45.394;10.978;2022-07-04T21:32:35;22.70;99.90
23385;DHT22;11865;45.394;10.978;2022-07-04T21:35:02;22.70;99.90
23385;DHT22;11865;45.394;10.978;2022-07-04T21:37:49;22.70;99.90
23385;DHT22;11865;45.394;10.978;2022-07-04T21:40:17;22.50;99.90
23385;DHT22;11865;45.394;10.978;2022-07-04T21:42:44;22.50;99.90
23385;DHT22;11865;45.394;10.978;2022-07-04T21:45:11;22.60;99.90
23385;DHT22;11865;45.394;10.978;2022-07-04T21:47:39;22.60;99.90
23385;DHT22;11865;45.394;10.978;2022-07-04T21:50:06;22.60;99.90
23385;DHT22;11865;45.394;10.978;2022-07-04T21:52:34;22.50;99.90
23385;DHT22;11865;45.394;10.978;2022-07-04T21:55:01;22.60;99.90
23385;DHT22;11865;45.394;10.978;2022-07-04T21:57:28;22.80;99.90
23385;DHT22;11865;45.394;10.978;2022-07-04T21:59:55;22.80;99.90
23385;DHT22;11865;45.394;10.978;2022-07-04T22:02:23;22.90;99.90
23385;DHT22;11865;45.394;10.978;2022-07-04T22:04:50;22.80;99.90
23385;DHT22;11865;45.394;10.978;2022-07-04T22:07:18;22.60;99.90
23385;DHT22;11865;45.394;10.978;2022-07-04T22:09:45;22.30;99.90
23385;DHT22;11865;45.394;10.978;2022-07-04T22:12:13;22.30;99.90
23385;DHT22;11865;45.394;10.978;2022-07-04T22:14:40;22.50;99.90
23385;DHT22;11865;45.394;10.978;2022-07-04T22:17:08;22.60;99.90
23385;DHT22;11865;45.394;10.978;2022-07-04T22:19:35;22.70;99.90
23385;DHT22;11865;45.394;10.978;2022-07-04T22:22:03;22.80;99.90
23385;DHT22;11865;45.394;10.978;2022-07-04T22:24:30;22.70;99.90
23385;DHT22;11865;45.394;10.978;2022-07-04T22:26:57;22.50;99.90
23385;DHT22;11865;45.394;10.978;2022-07-04T22:29:25;22.50;99.90
23385;DHT22;11865;45.394;10.978;2022-07-04T22:31:52;22.40;99.90
23385;DHT22;11865;45.394;10.978;2022-07-04T22:34:19;22.30;99.90
23385;DHT22;11865;45.394;10.978;2022-07-04T22:36:47;22.10;99.90
23385;DHT22;11865;45.394;10.978;2022-07-04T22:39:14;22.20;99.90
23385;DHT22;11865;45.394;10.978;2022-07-04T22:41:41;22.20;99.90
23385;DHT22;11865;45.394;10.978;2022-07-04T22:44:08;22.00;99.90
23385;DHT22;11865;45.394;10.978;2022-07-04T22:46:36;21.80;99.90
23385;DHT22;11865;45.394;10.978;2022-07-04T22:49:03;21.80;99.90
23385;DHT22;11865;45.394;10.978;2022-07-04T22:51:30;21.90;99.90
23385;DHT22;11865;45.394;10.978;2022-07-04T22:53:58;21.90;99.90
23385;DHT22;11865;45.394;10.978;2022-07-04T22:56:44;21.90;99.90
23385;DHT22;11865;45.394;10.978;2022-07-04T22:59:11;21.80;99.90
23385;DHT22;11865;45.394;10.978;2022-07-04T23:01:39;21.70;99.90
23385;DHT22;11865;45.394;10.978;2022-07-04T23:04:06;21.70;99.90
23385;DHT22;11865;45.394;10.978;2022-07-04T23:06:33;21.60;99.90
23385;DHT22;11865;45.394;10.978;2022-07-04T23:09:01;21.60;99.90
23385;DHT22;11865;45.394;10.978;2022-07-04T23:11:28;21.80;99.90
23385;DHT22;11865;45.394;10.978;2022-07-04T23:13:55;21.70;99.90
23385;DHT22;11865;45.394;10.978;2022-07-04T23:16:23;21.80;99.90
23385;DHT22;11865;45.394;10.978;2022-07-04T23:18:50;21.70;99.90
23385;DHT22;11865;45.394;10.978;2022-07-04T23:21:18;21.70;99.90
23385;DHT22;11865;45.394;10.978;2022-07-04T23:23:45;21.70;99.90
23385;DHT22;11865;45.394;10.978;2022-07-04T23:26:12;21.70;99.90
23385;DHT22;11865;45.394;10.978;2022-07-04T23:28:40;21.60;99.90
23385;DHT22;11865;45.394;10.978;2022-07-04T23:31:07;21.70;99.90
23385;DHT22;11865;45.394;10.978;2022-07-04T23:33:34;21.70;99.90
23385;DHT22;11865;45.394;10.978;2022-07-04T23:36:02;21.70;99.90
23385;DHT22;11865;45.394;10.978;2022-07-04T23:38:29;21.80;99.90
23385;DHT22;11865;45.394;10.978;2022-07-04T23:40:57;21.90;99.90
23385;DHT22;11865;45.394;10.978;2022-07-04T23:43:34;21.80;99.90
23385;DHT22;11865;45.394;10.978;2022-07-04T23:46:06;21.80;99.90
23385;DHT22;11865;45.394;10.978;2022-07-04T23:48:35;21.80;99.90
23385;DHT22;11865;45.394;10.978;2022-07-04T23:51:02;21.80;99.90
23385;DHT22;11865;45.394;10.978;2022-07-04T23:53:30;21.70;99.90
23385;DHT22;11865;45.394;10.978;2022-07-04T23:55:57;21.70;99.90
23385;DHT22;11865;45.394;10.978;2022-07-04T23:58:24;21.80;99.90
